首页
METAR-TAF:

METAR-TAF

机场 :

哈利法克斯罗伯特·洛恩·斯坦菲尔德国际机场

哈利法克斯, 新斯科舍, 加拿大

纬度: 44-53N, 经度: 063-30W, 海拔: 145米

当前天气观测

该预报发布于32分钟前的22:37 UTC
风速8节,风向南转南东
温度 15°C
湿度 67%
气压 1014 hPa
能見度: 24.1公里
多云层高于900英尺
阴天层高于15000英尺

METAR: CYHZ 232237Z 16008KT 15SM BKN009 OVC150 15/09 A2995 RMK SC6AC2 SLP146 DENSITY ALT 600FT

时间: 20:09 (23:09 UTC)

预报

该预报发布于11分钟前的22:58 UTC
预报有效从23日的 22点(UTC)到 24日的 18点(UTC)
风速6节,风向南转南东
能見度: 10公里
多云层高于800英尺
阴天层高于15000英尺
短暂存在
从 23日的 22点(UTC)到 24日的 03点(UTC)
多云层高于1500英尺
从 24日的 0300点(UTC)
风速6节,风向南转南东
能見度: 3.2公里
阴天层高于400英尺
小雨, 轻雾
短暂存在
从 24日的 03点(UTC)到 24日的 06点(UTC)
能見度: 9.7公里
阴天层高于1000英尺
轻雾
从 24日的 0600点(UTC)
风速6节,风向南转南东
能見度: 0.8公里
层高于200英尺
小雨, 雾
几率 30%
从 24日的 09点(UTC)到 24日的 11点(UTC)
能見度: 0.8公里
多云层高于200英尺
阴天层高于3000英尺, 积雨云.
雷暴, 雨, 雾
从 24日的 1500点(UTC)
风速7节,风向南转西南
能見度: 4.8公里
阴天层高于400英尺
小毛毛雨, 轻雾
从 24日的 1700点(UTC)
风速10节,风向西北
能見度: 9.7公里
阴天层高于700英尺
轻雾

TAF: CYHZ 232258Z 2322/2418 16006KT P6SM BKN008 OVC150 TEMPO 2322/2403 BKN015 FM240300 16006KT 2SM -RA BR OVC004 TEMPO 2403/2406 6SM BR OVC010 FM240600 15006KT 1/2SM -RA FG VV002 PROB30 2409/2411 1/2SM TSRA FG BKN002 OVC030CB FM241500 21007KT 3SM -DZ BR OVC004 FM241700 31010KT 6SM BR OVC007 RMK NXT FCST BY 240000Z

超过4000个机场的气象观测和天气预报(METAR&TAF报告)。

可查询的气象台以黄色和红色小点在地图上表示。

将鼠标移到小点上方,可查看气象台名称。

然后点击查看天气观测和预报。

如需切换地图:点击带黑十字的绿色按钮放大地图;点击带横线的绿色按钮缩小地图;或者点击绿色箭头查看邻近地区的地图。


METAR-TAF: